Time;durP1;ratioP1;P1;durP2;ratioP2;P2;SDS_P1;SDS_P2;PMS_P1;PMS_P2;Temp;Humidity;BMP_temperature;BMP_pressure;BME280_temperature;BME280_humidity;BME280_pressure;Samples;Min_cycle;Max_cycle;Signal;HPM_P1;HPM_P2
2022/06/28 00:00:13;;;;;;;13.00;6.10;;;;;;;22.66;49.37;99440.50;25065;1315;3026941;-62
2022/06/28 00:02:43;;;;;;;14.60;5.70;;;;;;;22.67;49.01;99439.48;25078;1315;3051039;-61
2022/06/28 00:05:12;;;;;;;11.60;5.70;;;;;;;22.64;49.49;99441.58;25044;1315;3026643;-61
2022/06/28 00:07:42;;;;;;;9.30;5.80;;;;;;;22.65;49.39;99439.52;25093;1315;3026219;-61
2022/06/28 00:10:13;;;;;;;12.30;6.20;;;;;;;22.61;49.67;99438.55;25083;1315;3026928;-60
2022/06/28 00:12:42;;;;;;;16.40;5.70;;;;;;;22.58;49.84;99444.08;25020;1315;3027299;-62
2022/06/28 00:18:00;;;;;;;17.80;7.30;;;;;;;22.45;50.35;99438.08;25067;1315;3053149;-62
2022/06/28 00:20:30;;;;;;;16.60;7.10;;;;;;;22.42;50.32;99439.36;25073;1315;3026666;-62
2022/06/28 00:22:59;;;;;;;16.40;6.80;;;;;;;22.39;50.27;99440.48;25052;1315;3027652;-63
2022/06/28 00:25:28;;;;;;;15.50;6.60;;;;;;;22.32;50.74;99437.89;25097;1315;3051301;-63
2022/06/28 00:27:57;;;;;;;14.00;6.90;;;;;;;22.29;50.99;99441.33;25111;1315;3026733;-62
2022/06/28 00:30:26;;;;;;;17.50;7.20;;;;;;;22.28;50.99;99438.36;25054;1315;3027544;-61
2022/06/28 00:32:55;;;;;;;17.60;7.40;;;;;;;22.20;51.65;99433.67;25091;1315;3052877;-62
2022/06/28 00:35:24;;;;;;;17.80;7.80;;;;;;;22.08;52.24;99437.04;25034;1315;3026706;-61
2022/06/28 00:37:53;;;;;;;20.00;7.70;;;;;;;22.02;52.22;99438.32;25119;1315;3055414;-61
2022/06/28 00:40:23;;;;;;;14.10;7.60;;;;;;;22.00;52.44;99441.16;25074;1315;3026263;-61
2022/06/28 00:42:52;;;;;;;17.50;7.40;;;;;;;21.96;52.54;99445.64;25032;1313;3052690;-62
2022/06/28 00:45:21;;;;;;;19.70;7.40;;;;;;;21.92;52.46;99448.17;25095;1315;3026768;-62
2022/06/28 00:47:51;;;;;;;20.90;7.40;;;;;;;21.86;52.38;99444.40;25022;1315;3058727;-61
2022/06/28 00:50:20;;;;;;;18.20;7.50;;;;;;;21.83;52.49;99448.41;25060;1315;3027220;-61
2022/06/28 00:53:07;;;;;;;17.00;7.80;;;;;;;21.82;52.22;99451.02;25136;1315;3026382;-63
2022/06/28 00:55:36;;;;;;;20.10;7.40;;;;;;;21.82;52.15;99450.76;25059;1315;3051721;-59
2022/06/28 00:58:06;;;;;;;14.40;7.30;;;;;;;21.81;52.43;99446.58;25101;1315;3026361;-64
2022/06/28 01:00:38;;;;;;;14.70;7.60;;;;;;;21.75;52.68;99451.28;25079;1315;3026482;-60
2022/06/28 01:03:09;;;;;;;17.40;8.20;;;;;;;21.71;52.67;99452.41;25094;1315;3049457;-62
2022/06/28 01:05:38;;;;;;;15.70;8.00;;;;;;;21.71;52.70;99452.05;25039;1315;3027154;-62
2022/06/28 01:08:07;;;;;;;14.80;7.60;;;;;;;21.64;53.36;99454.04;25071;1315;3026879;-62
2022/06/28 01:10:38;;;;;;;14.70;7.90;;;;;;;21.61;53.28;99453.80;25073;1315;3026674;-61
2022/06/28 01:13:08;;;;;;;18.30;8.30;;;;;;;21.58;53.53;99448.45;25097;1315;3027408;-61
2022/06/28 01:15:37;;;;;;;22.00;8.30;;;;;;;21.55;53.45;99445.73;25032;1313;3026761;-61
2022/06/28 01:18:09;;;;;;;20.20;8.60;;;;;;;21.54;53.95;99448.05;25102;1315;3026329;-61
2022/06/28 01:20:43;;;;;;;18.40;8.90;;;;;;;21.50;54.08;99448.58;25016;1315;3052851;-61
2022/06/28 01:23:32;;;;;;;20.80;8.60;;;;;;;21.46;53.90;99449.48;25058;1315;3051426;-61
2022/06/28 01:26:19;;;;;;;18.20;8.30;;;;;;;21.41;54.09;99448.26;25078;1315;3071587;-60
2022/06/28 01:28:49;;;;;;;14.70;8.10;;;;;;;21.39;54.15;99450.60;25025;1315;3027047;-62
2022/06/28 01:31:23;;;;;;;20.00;8.60;;;;;;;21.33;54.26;99453.58;25032;1315;3054987;-61
2022/06/28 01:33:52;;;;;;;22.20;9.30;;;;;;;21.31;54.23;99450.41;25065;1315;3026557;-62
2022/06/28 01:36:22;;;;;;;26.90;8.80;;;;;;;21.29;54.14;99443.09;25086;1315;3027121;-63
2022/06/28 01:38:51;;;;;;;22.00;8.50;;;;;;;21.29;53.99;99442.28;25031;1315;3028701;-61
2022/06/28 01:41:32;;;;;;;22.90;9.20;;;;;;;21.29;53.67;99440.45;25044;1315;3054260;-63
2022/06/28 01:44:06;;;;;;;22.10;9.30;;;;;;;21.30;53.86;99441.05;25028;1313;3059157;-62
2022/06/28 01:46:38;;;;;;;22.60;9.10;;;;;;;21.28;53.78;99446.59;25082;1315;3026655;-62
2022/06/28 01:49:10;;;;;;;21.40;9.30;;;;;;;21.26;53.78;99445.19;25032;1315;3029973;-62
2022/06/28 01:51:39;;;;;;;20.40;9.50;;;;;;;21.24;53.75;99441.34;25052;1315;3027129;-62
2022/06/28 01:54:09;;;;;;;21.10;9.00;;;;;;;21.19;54.02;99437.38;25058;1315;3026450;-61
2022/06/28 01:56:39;;;;;;;21.10;8.90;;;;;;;21.19;53.71;99441.39;25084;1315;3027645;-61
2022/06/28 01:59:29;;;;;;;21.80;8.80;;;;;;;21.16;53.89;99441.52;25034;1315;3052958;-62
2022/06/28 02:02:09;;;;;;;19.60;9.70;;;;;;;21.18;53.59;99442.18;25094;1314;3052127;-61
2022/06/28 02:04:51;;;;;;;20.30;8.90;;;;;;;21.20;53.52;99437.85;25095;1313;3058783;-60
2022/06/28 02:07:21;;;;;;;22.70;9.10;;;;;;;21.19;53.82;99439.92;25078;1315;3026935;-60
2022/06/28 02:09:51;;;;;;;19.30;8.40;;;;;;;21.19;53.76;99438.81;25032;1315;3027096;-60
2022/06/28 02:12:20;;;;;;;25.10;8.90;;;;;;;21.17;53.76;99441.91;25091;1313;3026943;-60
2022/06/28 02:14:49;;;;;;;22.30;9.50;;;;;;;21.17;53.90;99441.05;25072;1315;3051772;-62
2022/06/28 02:17:18;;;;;;;18.70;8.70;;;;;;;21.18;53.80;99438.92;25084;1315;3026492;-62
2022/06/28 02:19:48;;;;;;;23.10;9.00;;;;;;;21.20;53.74;99434.45;25094;1315;3056567;-63
2022/06/28 02:22:17;;;;;;;19.80;9.30;;;;;;;21.19;53.72;99429.40;25124;1315;3026134;-60
2022/06/28 02:24:48;;;;;;;23.50;9.20;;;;;;;21.19;53.61;99434.38;25042;1313;3026587;-61
2022/06/28 02:27:18;;;;;;;20.60;9.20;;;;;;;21.22;53.38;99433.02;25128;1313;3056867;-61
2022/06/28 02:29:47;;;;;;;19.20;9.00;;;;;;;21.24;53.41;99433.63;25060;1313;3028584;-61
2022/06/28 02:32:16;;;;;;;21.90;9.10;;;;;;;21.23;53.37;99440.86;25092;1313;3026309;-61
2022/06/28 02:40:26;;;;;;;24.70;9.80;;;;;;;21.15;53.31;99443.38;25032;1315;3056251;-62
2022/06/28 02:42:56;;;;;;;22.40;10.00;;;;;;;21.14;53.39;99443.41;25047;1315;3026634;-61
2022/06/28 02:45:27;;;;;;;25.50;9.90;;;;;;;21.13;53.39;99443.41;25070;1315;3026557;-60
2022/06/28 02:47:57;;;;;;;22.60;9.10;;;;;;;21.13;53.30;99440.34;25032;1315;3027034;-61
2022/06/28 02:50:26;;;;;;;22.20;8.70;;;;;;;21.15;52.87;99435.90;25101;1315;3026788;-64
2022/06/28 02:52:55;;;;;;;18.00;9.30;;;;;;;21.14;52.86;99438.11;25024;1315;3070707;-62
2022/06/28 02:55:25;;;;;;;19.50;9.40;;;;;;;21.17;52.59;99437.83;25008;1315;3026037;-61
2022/06/28 02:57:54;;;;;;;25.40;9.00;;;;;;;21.18;52.41;99438.95;25081;1313;3027497;-62
2022/06/28 03:00:23;;;;;;;21.50;8.30;;;;;;;21.20;52.23;99445.20;25061;1315;3026516;-61
2022/06/28 03:02:52;;;;;;;18.60;8.90;;;;;;;21.23;52.35;99440.16;25046;1315;3048399;-60
2022/06/28 03:05:23;;;;;;;23.20;10.10;;;;;;;21.21;52.61;99441.83;25083;1315;3026246;-62
2022/06/28 03:07:52;;;;;;;19.00;9.70;;;;;;;21.22;52.74;99443.49;25115;1315;3026875;-61
2022/06/28 03:10:22;;;;;;;18.80;8.90;;;;;;;21.23;52.54;99449.65;25118;1314;3026866;-61
2022/06/28 03:12:51;;;;;;;24.10;10.10;;;;;;;21.23;52.72;99449.30;25137;1313;3026616;-61
2022/06/28 03:15:20;;;;;;;25.60;9.30;;;;;;;21.23;53.02;99451.09;25048;1315;3027144;-61
2022/06/28 03:17:49;;;;;;;18.60;9.40;;;;;;;21.27;52.58;99450.97;25068;1315;3058185;-61
2022/06/28 03:20:18;;;;;;;29.00;9.10;;;;;;;21.32;52.27;99448.73;25029;1315;3025959;-62
2022/06/28 03:22:47;;;;;;;20.70;9.90;;;;;;;21.32;52.18;99453.11;25088;1315;3053253;-61
2022/06/28 03:25:17;;;;;;;19.00;8.90;;;;;;;21.35;52.14;99453.89;25094;1315;3027605;-61
2022/06/28 03:27:47;;;;;;;18.90;8.70;;;;;;;21.37;52.19;99450.35;25045;1315;3026836;-61
2022/06/28 03:30:16;;;;;;;14.60;8.60;;;;;;;21.36;51.86;99452.86;25092;1315;3054729;-61
2022/06/28 03:32:46;;;;;;;19.00;8.60;;;;;;;21.32;51.79;99450.46;25030;1315;3026662;-62
2022/06/28 03:35:20;;;;;;;20.60;8.90;;;;;;;21.35;51.73;99445.38;25070;1315;3052180;-61
2022/06/28 03:37:50;;;;;;;19.60;9.60;;;;;;;21.39;51.75;99444.75;25064;1315;3026788;-63
2022/06/28 03:40:19;;;;;;;19.70;9.10;;;;;;;21.43;51.92;99444.69;25047;1313;3026566;-62
2022/06/28 03:42:50;;;;;;;24.00;8.90;;;;;;;21.43;51.86;99442.71;25027;1315;3053015;-62
2022/06/28 03:45:19;;;;;;;30.00;9.30;;;;;;;21.44;51.52;99445.95;25092;1315;3026652;-61
2022/06/28 03:48:00;;;;;;;24.00;9.80;;;;;;;21.47;51.77;99449.58;25116;1315;3058987;-62
2022/06/28 03:51:01;;;;;;;26.50;10.00;;;;;;;21.52;51.61;99446.05;25050;1315;3052139;-63
2022/06/28 03:53:37;;;;;;;23.90;10.00;;;;;;;21.53;51.87;99445.77;25093;1315;3052876;-61
2022/06/28 03:56:18;;;;;;;23.30;9.20;;;;;;;21.59;51.77;99447.42;25084;1318;3053779;-62
2022/06/28 03:58:47;;;;;;;23.30;8.80;;;;;;;21.62;51.39;99444.08;25069;1315;3026595;-62
2022/06/28 04:01:16;;;;;;;20.80;9.30;;;;;;;21.66;51.24;99441.20;25042;1315;3054709;-61
2022/06/28 04:03:45;;;;;;;16.40;8.30;;;;;;;21.71;50.87;99442.75;25125;1315;3026950;-60
2022/06/28 04:06:15;;;;;;;18.80;9.30;;;;;;;21.77;50.10;99442.89;25103;1315;3050930;-61
2022/06/28 04:08:44;;;;;;;18.70;8.30;;;;;;;21.83;50.05;99447.08;25044;1315;3026842;-62
2022/06/28 04:11:13;;;;;;;21.00;8.70;;;;;;;21.86;50.00;99443.88;25081;1315;3057909;-61
2022/06/28 04:13:45;;;;;;;19.50;8.00;;;;;;;21.93;49.73;99442.16;25040;1315;3026528;-61
2022/06/28 04:16:16;;;;;;;19.60;8.20;;;;;;;22.00;49.32;99442.55;25096;1316;3051886;-64
2022/06/28 04:18:45;;;;;;;19.40;9.20;;;;;;;22.03;49.15;99445.80;25057;1313;3028969;-61
2022/06/28 04:21:31;;;;;;;22.00;10.30;;;;;;;22.02;49.75;99441.27;25075;1315;3049668;-62
2022/06/28 04:24:12;;;;;;;18.10;9.20;;;;;;;22.05;49.88;99445.02;25121;1315;3054233;-63
2022/06/28 04:26:51;;;;;;;19.70;9.70;;;;;;;22.08;49.85;99446.67;25031;1315;3054347;-61
2022/06/28 04:29:22;;;;;;;20.80;9.00;;;;;;;22.11;49.72;99446.83;25013;1315;3026782;-62
2022/06/28 04:31:52;;;;;;;14.60;8.90;;;;;;;22.12;49.42;99447.48;25042;1315;3026105;-61
2022/06/28 04:34:22;;;;;;;17.30;8.50;;;;;;;22.13;49.61;99449.14;25081;1315;3027037;-62
2022/06/28 04:36:54;;;;;;;26.90;8.70;;;;;;;22.18;49.36;99450.23;25087;1315;3069330;-64
2022/06/28 04:39:24;;;;;;;18.10;9.60;;;;;;;22.24;49.61;99452.21;25086;1315;3028051;-61
2022/06/28 04:42:17;;;;;;;16.90;8.60;;;;;;;22.21;49.91;99453.65;25040;1313;3055329;-61
2022/06/28 04:44:47;;;;;;;20.40;9.00;;;;;;;22.21;50.05;99450.97;25052;1315;3026595;-61
2022/06/28 04:47:17;;;;;;;18.10;8.30;;;;;;;22.26;50.25;99452.37;25104;1315;3027077;-62
2022/06/28 04:49:46;;;;;;;15.10;8.00;;;;;;;22.33;49.88;99451.56;25009;1315;3026360;-64
2022/06/28 04:52:16;;;;;;;21.60;8.40;;;;;;;22.41;49.46;99454.81;25086;1315;3053675;-62
2022/06/28 04:54:49;;;;;;;24.50;8.10;;;;;;;22.46;49.54;99454.15;25077;1315;3057390;-59
2022/06/28 04:57:31;;;;;;;21.00;8.90;;;;;;;22.53;49.28;99447.10;25059;1315;3052383;-59
2022/06/28 05:00:12;;;;;;;18.80;7.40;;;;;;;22.53;48.78;99450.81;25091;1315;3053523;-61
2022/06/28 05:02:48;;;;;;;16.30;7.00;;;;;;;22.61;48.72;99446.38;25097;1315;3051648;-62
2022/06/28 05:05:47;;;;;;;13.80;6.90;;;;;;;22.71;47.81;99453.30;24889;1318;3071633;-61
2022/06/28 05:08:17;;;;;;;18.70;7.10;;;;;;;22.78;47.59;99459.68;25049;1315;3026519;-63
2022/06/28 05:11:12;;;;;;;13.00;5.80;;;;;;;22.84;47.05;99459.56;25080;1315;3055214;-60
2022/06/28 05:14:00;;;;;;;15.30;5.70;;;;;;;22.90;46.92;99462.01;25077;1315;3052775;-62
2022/06/28 05:16:29;;;;;;;25.20;6.50;;;;;;;22.98;46.19;99465.77;25039;1314;3026627;-62
2022/06/28 05:18:59;;;;;;;14.90;6.60;;;;;;;23.04;46.10;99471.70;25036;1315;3055284;-62
2022/06/28 05:21:36;;;;;;;15.20;6.10;;;;;;;23.11;45.77;99470.23;25084;1313;3055177;-62
2022/06/28 05:24:05;;;;;;;20.50;6.80;;;;;;;23.17;45.43;99468.23;25044;1313;3026606;-61
2022/06/28 05:26:43;;;;;;;13.40;6.20;;;;;;;23.16;45.43;99459.23;25131;1313;3052422;-62
2022/06/28 05:29:20;;;;;;;18.30;5.70;;;;;;;23.23;45.27;99457.69;25112;1315;3055158;-61
2022/06/28 05:31:49;;;;;;;13.80;6.10;;;;;;;23.28;44.77;99453.90;25029;1315;3026923;-62
2022/06/28 05:34:18;;;;;;;13.10;6.00;;;;;;;23.33;44.98;99456.93;25097;1313;3054466;-63
2022/06/28 05:36:47;;;;;;;16.40;6.70;;;;;;;23.39;44.86;99458.57;25024;1315;3026870;-62
2022/06/28 05:39:17;;;;;;;13.50;6.20;;;;;;;23.45;44.76;99458.23;25036;1315;3026544;-62
2022/06/28 05:41:46;;;;;;;14.00;6.60;;;;;;;23.45;44.75;99458.49;25065;1315;3026322;-62
2022/06/28 05:44:16;;;;;;;15.60;6.00;;;;;;;23.49;44.63;99462.09;25124;1315;3026608;-61
2022/06/28 05:46:45;;;;;;;16.40;6.20;;;;;;;23.54;44.83;99463.04;25044;1315;3058594;-63
2022/06/28 05:49:14;;;;;;;14.00;5.90;;;;;;;23.62;44.31;99458.36;25080;1315;3027074;-64
2022/06/28 05:51:43;;;;;;;16.90;6.00;;;;;;;23.67;43.56;99461.16;25085;1313;3054835;-61
2022/06/28 05:54:14;;;;;;;19.80;6.20;;;;;;;23.75;43.77;99461.71;25041;1315;3028804;-61
2022/06/28 05:56:44;;;;;;;18.00;5.90;;;;;;;23.83;44.08;99458.77;25120;1314;3027299;-62
2022/06/28 05:59:14;;;;;;;18.60;5.90;;;;;;;23.91;44.18;99459.54;25116;1313;3026590;-63
2022/06/28 06:01:43;;;;;;;11.70;5.70;;;;;;;23.96;43.25;99456.75;25111;1315;3027885;-63
2022/06/28 06:04:12;;;;;;;15.90;5.80;;;;;;;24.04;43.18;99455.86;25030;1313;3049249;-61
2022/06/28 06:06:42;;;;;;;12.90;5.60;;;;;;;24.11;43.18;99459.02;25079;1313;3027072;-63
2022/06/28 06:09:11;;;;;;;14.10;6.70;;;;;;;24.21;43.29;99457.27;25087;1313;3027034;-63
2022/06/28 06:11:44;;;;;;;13.10;5.60;;;;;;;24.27;42.94;99457.80;25050;1315;3051551;-63
2022/06/28 06:14:16;;;;;;;16.90;6.40;;;;;;;24.32;43.02;99450.43;25183;1313;3026668;-62
2022/06/28 06:16:45;;;;;;;14.50;6.30;;;;;;;24.41;43.30;99444.74;25064;1313;3026688;-66
2022/06/28 06:19:14;;;;;;;15.80;5.50;;;;;;;24.53;43.14;99451.90;25059;1315;3026935;-62
2022/06/28 06:21:44;;;;;;;10.70;4.90;;;;;;;24.62;42.78;99453.33;25091;1315;3026166;-63
2022/06/28 06:24:13;;;;;;;12.40;5.80;;;;;;;24.69;42.88;99451.61;25051;1315;3054003;-62
2022/06/28 06:27:03;;;;;;;16.90;5.60;;;;;;;24.80;42.37;99450.05;24953;1315;3070864;-63
2022/06/28 06:29:32;;;;;;;16.80;5.10;;;;;;;24.90;41.96;99447.47;25059;1313;3026547;-62
2022/06/28 06:32:04;;;;;;;17.10;5.40;;;;;;;25.02;41.76;99445.38;25148;1318;3026597;-62
2022/06/28 06:34:56;;;;;;;13.00;5.20;;;;;;;25.09;42.13;99441.52;25067;1313;3054713;-64
2022/06/28 06:37:26;;;;;;;10.30;5.20;;;;;;;25.20;41.65;99440.31;25139;1313;3026330;-61
2022/06/28 06:39:55;;;;;;;16.10;5.00;;;;;;;25.31;41.30;99441.77;25041;1315;3027323;-63
2022/06/28 06:42:24;;;;;;;12.50;5.10;;;;;;;25.40;40.69;99444.83;25045;1313;3026443;-63
2022/06/28 06:44:54;;;;;;;13.50;5.10;;;;;;;25.47;40.52;99444.66;25116;1315;3057046;-63
2022/06/28 06:47:25;;;;;;;11.70;4.80;;;;;;;25.56;39.41;99440.98;25029;1313;3026704;-58
2022/06/28 06:49:53;;;;;;;16.50;5.30;;;;;;;25.68;39.49;99442.60;25126;1313;3026125;-63
2022/06/28 06:52:22;;;;;;;11.90;4.50;;;;;;;25.76;38.94;99438.40;25055;1313;3058392;-61
2022/06/28 06:54:52;;;;;;;12.40;4.60;;;;;;;25.81;38.93;99442.77;25108;1313;3026460;-63
2022/06/28 06:57:23;;;;;;;10.60;4.50;;;;;;;25.90;38.50;99441.48;25064;1315;3054813;-61
2022/06/28 06:59:52;;;;;;;15.20;4.50;;;;;;;26.02;38.84;99443.11;25094;1313;3026722;-62
2022/06/28 07:02:21;;;;;;;11.10;4.10;;;;;;;26.12;38.12;99442.47;25087;1313;3053913;-62
2022/06/28 07:04:55;;;;;;;15.60;4.70;;;;;;;26.21;37.48;99445.92;25109;1313;3026497;-62
2022/06/28 07:07:25;;;;;;;9.30;4.60;;;;;;;26.23;37.14;99447.11;25090;1313;3026522;-63
2022/06/28 07:09:54;;;;;;;13.90;4.50;;;;;;;26.28;37.32;99449.59;25084;1315;3027325;-61
2022/06/28 07:12:23;;;;;;;13.00;4.20;;;;;;;26.35;37.02;99452.38;25097;1315;3026542;-62
2022/06/28 07:14:52;;;;;;;9.40;4.20;;;;;;;26.46;37.02;99454.72;25032;1315;3026155;-61
2022/06/28 07:17:22;;;;;;;8.40;3.90;;;;;;;26.54;36.40;99451.01;25092;1315;3050281;-62
2022/06/28 07:19:51;;;;;;;8.00;4.10;;;;;;;26.63;35.85;99455.91;25062;1315;3027366;-60
2022/06/28 07:22:22;;;;;;;9.00;4.00;;;;;;;26.73;35.90;99460.10;25058;1315;3026910;-62
2022/06/28 07:24:53;;;;;;;11.00;4.40;;;;;;;26.77;36.24;99457.27;25082;1318;3050916;-62
2022/06/28 07:27:23;;;;;;;16.90;4.10;;;;;;;26.86;36.03;99456.24;25085;1315;3026839;-63
2022/06/28 07:29:52;;;;;;;13.40;4.20;;;;;;;26.93;36.00;99454.31;25140;1315;3026380;-63
2022/06/28 07:32:22;;;;;;;12.70;3.90;;;;;;;27.02;35.65;99451.82;25102;1314;3048393;-62
2022/06/28 07:34:51;;;;;;;10.50;3.70;;;;;;;27.08;35.05;99453.30;25040;1315;3027631;-62
2022/06/28 07:37:22;;;;;;;9.40;3.60;;;;;;;27.13;34.51;99452.91;25025;1315;3058428;-63
2022/06/28 07:39:51;;;;;;;7.30;3.40;;;;;;;27.20;34.94;99443.09;25130;1318;3027559;-61
2022/06/28 07:42:26;;;;;;;13.90;3.70;;;;;;;27.29;35.06;99445.79;25036;1314;3056221;-62
2022/06/28 07:45:21;;;;;;;7.40;3.10;;;;;;;27.40;34.51;99444.02;25102;1315;3051733;-62
2022/06/28 07:47:52;;;;;;;11.40;3.90;;;;;;;27.43;34.02;99442.49;25025;1315;3028369;-62
2022/06/28 07:53:12;;;;;;;11.10;3.40;;;;;;;27.63;34.04;99442.98;25063;1315;3051137;-61
2022/06/28 07:56:07;;;;;;;10.00;3.00;;;;;;;27.72;33.81;99447.20;25045;1315;3068897;-62
2022/06/28 07:58:40;;;;;;;6.60;2.80;;;;;;;27.77;33.28;99441.17;25050;1315;3026344;-61
2022/06/28 08:01:12;;;;;;;7.40;3.00;;;;;;;27.90;33.17;99439.60;25159;1314;3026162;-62
2022/06/28 08:03:41;;;;;;;9.50;2.70;;;;;;;28.04;33.10;99437.10;25046;1314;3026092;-63
2022/06/28 08:06:10;;;;;;;10.10;3.00;;;;;;;28.10;32.68;99438.19;25055;1315;3050877;-63
2022/06/28 08:08:50;;;;;;;5.70;2.80;;;;;;;28.19;31.91;99435.73;25077;1315;3054801;-63
2022/06/28 08:11:19;;;;;;;9.70;2.90;;;;;;;28.21;31.47;99431.38;25069;1315;3026876;-62
2022/06/28 08:13:50;;;;;;;8.30;2.50;;;;;;;28.26;31.65;99428.45;25072;1316;3051540;-62
2022/06/28 08:16:19;;;;;;;7.40;2.10;;;;;;;28.35;31.19;99425.20;25049;1315;3027546;-62
2022/06/28 08:18:48;;;;;;;7.30;2.40;;;;;;;28.39;31.01;99423.45;25077;1315;3026652;-63
2022/06/28 08:21:17;;;;;;;5.60;2.60;;;;;;;28.44;31.26;99423.52;25126;1315;3052562;-61
2022/06/28 08:23:46;;;;;;;7.70;2.70;;;;;;;28.42;31.40;99421.90;25065;1315;3026506;-59
2022/06/28 08:26:15;;;;;;;6.30;1.90;;;;;;;28.55;31.02;99423.15;25162;1315;3071015;-58
2022/06/28 08:28:44;;;;;;;6.90;2.40;;;;;;;28.72;31.13;99411.95;25084;1315;3026656;-60
2022/06/28 08:31:13;;;;;;;4.90;1.90;;;;;;;28.86;30.56;99411.81;25158;1313;3053320;-61
2022/06/28 08:33:43;;;;;;;11.40;2.20;;;;;;;28.90;30.27;99415.51;24985;1313;3026593;-58
2022/06/28 08:36:12;;;;;;;6.00;1.90;;;;;;;28.99;29.46;99415.77;25146;1315;3026974;-59
2022/06/28 08:38:41;;;;;;;9.30;2.10;;;;;;;29.05;29.38;99422.96;25024;1313;3052980;-60
2022/06/28 08:41:10;;;;;;;8.30;2.10;;;;;;;29.17;28.99;99424.71;25196;1313;3026992;-60
2022/06/28 08:43:39;;;;;;;4.20;1.80;;;;;;;29.24;28.90;99420.73;25181;1315;3053968;-59
2022/06/28 08:46:08;;;;;;;12.70;2.20;;;;;;;29.36;28.95;99420.46;25079;1313;3026763;-59
2022/06/28 08:48:42;;;;;;;4.20;1.80;;;;;;;29.40;28.31;99416.57;25174;1315;3049211;-59
2022/06/28 08:51:11;;;;;;;8.80;1.80;;;;;;;29.41;28.89;99417.73;25098;1315;3053130;-63
2022/06/28 08:53:41;;;;;;;6.80;1.80;;;;;;;29.45;29.05;99417.41;25094;1313;3026577;-59
2022/06/28 08:56:10;;;;;;;5.50;1.70;;;;;;;29.56;28.79;99419.13;25097;1315;3049060;-59
2022/06/28 08:58:43;;;;;;;5.80;1.90;;;;;;;29.68;28.59;99415.85;25094;1313;3026590;-58
2022/06/28 09:01:13;;;;;;;5.60;1.90;;;;;;;29.60;27.90;99416.29;25126;1313;3058375;-58
2022/06/28 09:04:01;;;;;;;3.30;1.60;;;;;;;29.67;28.17;99415.77;25136;1313;3028257;-59
2022/06/28 09:06:31;;;;;;;10.20;2.00;;;;;;;29.70;28.06;99413.15;25072;1316;3053533;-59
2022/06/28 09:09:00;;;;;;;6.70;1.60;;;;;;;29.70;28.24;99407.54;25122;1315;3026413;-59
2022/06/28 09:11:37;;;;;;;6.60;1.50;;;;;;;29.87;28.25;99408.58;24936;1315;3054042;-59
2022/06/28 09:14:20;;;;;;;4.40;1.70;;;;;;;30.02;27.55;99406.52;25100;1315;3052236;-60
2022/06/28 09:16:50;;;;;;;7.60;1.60;;;;;;;30.15;27.48;99405.94;25074;1313;3058537;-59
2022/06/28 09:19:33;;;;;;;7.30;1.70;;;;;;;30.08;27.42;99401.30;25098;1313;3026479;-59
2022/06/28 09:22:03;;;;;;;5.30;1.70;;;;;;;30.13;27.49;99400.58;25043;1313;3053801;-58
2022/06/28 09:24:33;;;;;;;5.30;1.30;;;;;;;30.18;27.05;99398.98;25085;1313;3026635;-60
2022/06/28 09:27:06;;;;;;;4.30;1.50;;;;;;;30.28;27.26;99397.36;25072;1313;3027234;-59
2022/06/28 09:29:48;;;;;;;5.10;1.40;;;;;;;30.34;26.98;99399.49;25064;1313;3026470;-60
2022/06/28 09:32:24;;;;;;;6.10;1.10;;;;;;;30.41;26.38;99401.12;25089;1315;3054720;-60
2022/06/28 09:35:02;;;;;;;5.50;1.20;;;;;;;30.42;25.96;99399.26;25078;1315;3055235;-60
2022/06/28 09:37:37;;;;;;;3.80;1.40;;;;;;;30.37;25.44;99395.50;25076;1313;3057932;-59
2022/06/28 09:40:17;;;;;;;3.00;1.20;;;;;;;30.32;25.08;99396.52;25079;1313;3050240;-60
2022/06/28 09:43:12;;;;;;;6.80;1.30;;;;;;;30.42;25.44;99396.16;25083;1313;3053342;-58
2022/06/28 09:45:45;;;;;;;4.30;1.40;;;;;;;30.55;25.67;99394.34;25097;1317;3051522;-59
2022/06/28 09:48:19;;;;;;;2.80;1.30;;;;;;;30.68;24.71;99387.13;25207;1313;3070927;-58
2022/06/28 09:50:48;;;;;;;4.30;1.20;;;;;;;30.73;25.16;99380.73;25116;1313;3026414;-60
2022/06/28 09:53:20;;;;;;;5.70;1.70;;;;;;;30.62;25.50;99382.58;25090;1313;3026370;-62
2022/06/28 09:55:49;;;;;;;4.00;1.40;;;;;;;30.72;26.01;99375.45;24933;1315;3068205;-59
2022/06/28 09:58:18;;;;;;;2.60;1.30;;;;;;;30.79;25.20;99368.84;25104;1315;3026487;-63
2022/06/28 10:00:47;;;;;;;5.80;1.30;;;;;;;30.83;25.10;99358.64;25022;1313;3050796;-59
2022/06/28 10:03:16;;;;;;;6.00;1.40;;;;;;;30.93;25.77;99359.40;25114;1313;3026736;-60
2022/06/28 10:05:46;;;;;;;2.30;1.10;;;;;;;31.11;25.65;99356.65;25123;1313;3055078;-59
2022/06/28 10:08:15;;;;;;;7.80;1.60;;;;;;;31.27;25.83;99357.21;25042;1315;3026457;-60
2022/06/28 10:10:44;;;;;;;3.60;1.40;;;;;;;31.46;25.61;99357.60;25006;1313;3051445;-59
2022/06/28 10:16:31;;;;;;;4.50;1.50;;;;;;;31.61;25.20;99359.64;25060;1313;3059304;-57
2022/06/28 10:19:00;;;;;;;8.30;1.40;;;;;;;31.71;25.08;99358.84;25085;1313;3049935;-59
2022/06/28 10:21:42;;;;;;;5.70;1.40;;;;;;;31.72;24.96;99363.63;25042;1314;3027998;-58
2022/06/28 10:24:12;;;;;;;2.20;1.30;;;;;;;31.73;24.91;99364.96;25059;1313;3058762;-58
2022/06/28 10:26:45;;;;;;;4.70;1.30;;;;;;;31.82;24.93;99362.47;25033;1313;3026534;-59
2022/06/28 10:29:15;;;;;;;7.60;1.50;;;;;;;31.89;24.28;99357.75;25047;1313;3052829;-59
2022/06/28 10:31:44;;;;;;;4.30;1.50;;;;;;;31.92;24.73;99357.93;25131;1313;3026908;-59
2022/06/28 10:34:17;;;;;;;6.00;2.00;;;;;;;31.78;24.62;99356.30;25116;1315;3026282;-60
2022/06/28 10:36:51;;;;;;;6.10;1.80;;;;;;;31.91;24.79;99353.11;25163;1313;3052617;-57
2022/06/28 10:39:26;;;;;;;3.40;1.40;;;;;;;32.02;24.41;99348.58;25102;1313;3052006;-60
2022/06/28 10:41:58;;;;;;;11.10;1.80;;;;;;;32.00;24.32;99345.17;25125;1313;3069253;-58
2022/06/28 10:44:31;;;;;;;9.60;2.10;;;;;;;32.08;23.94;99346.83;25119;1315;3026621;-62
2022/06/28 10:47:00;;;;;;;6.30;1.00;;;;;;;32.32;23.61;99337.69;25136;1314;3026799;-61
2022/06/28 10:49:44;;;;;;;4.30;1.40;;;;;;;32.43;23.68;99340.27;25066;1315;3026581;-60
2022/06/28 10:52:35;;;;;;;3.80;1.50;;;;;;;32.51;23.86;99341.84;25133;1315;3049321;-59
2022/06/28 10:55:04;;;;;;;6.00;1.60;;;;;;;32.61;23.77;99343.90;25083;1313;3052671;-59
2022/06/28 10:57:38;;;;;;;5.00;2.10;;;;;;;32.53;23.57;99340.90;25138;1313;3026580;-59
2022/06/28 11:00:09;;;;;;;6.20;1.80;;;;;;;32.57;24.01;99343.31;25112;1313;3057725;-60
2022/06/28 11:02:45;;;;;;;5.60;1.40;;;;;;;32.69;23.04;99344.11;25104;1313;3026386;-60
2022/06/28 11:05:14;;;;;;;6.60;1.60;;;;;;;32.79;22.89;99339.34;25113;1313;3052812;-60
2022/06/28 11:07:59;;;;;;;7.80;1.70;;;;;;;32.83;23.33;99334.65;25092;1313;3026441;-60
2022/06/28 11:10:29;;;;;;;6.70;1.30;;;;;;;32.89;23.70;99324.44;25082;1314;3050618;-58
2022/06/28 11:13:27;;;;;;;1.80;1.20;;;;;;;32.85;23.73;99323.67;25077;1313;3026476;-59
2022/06/28 11:15:59;;;;;;;8.80;1.80;;;;;;;33.04;23.47;99324.13;25042;1313;3053719;-59
2022/06/28 11:18:28;;;;;;;3.40;1.40;;;;;;;33.16;23.55;99319.31;25078;1313;3026640;-58
2022/06/28 11:20:57;;;;;;;9.60;1.70;;;;;;;33.29;23.74;99319.08;25028;1315;3052688;-62
2022/06/28 11:23:28;;;;;;;3.10;1.60;;;;;;;33.36;23.78;99310.69;25120;1313;3026788;-59
2022/06/28 11:28:52;;;;;;;6.30;1.30;;;;;;;33.35;24.28;99310.08;25041;1313;3055934;-61
2022/06/28 11:31:23;;;;;;;4.40;1.30;;;;;;;33.54;24.33;99311.73;25131;1313;3054094;-61
2022/06/28 11:33:52;;;;;;;3.00;1.50;;;;;;;33.65;24.51;99312.89;25109;1313;3026822;-59
2022/06/28 11:36:31;;;;;;;4.20;1.40;;;;;;;33.71;24.62;99310.25;25093;1313;3027442;-62
2022/06/28 11:39:04;;;;;;;6.70;1.70;;;;;;;33.80;24.42;99310.70;25111;1313;3054239;-60
2022/06/28 11:41:33;;;;;;;6.10;1.80;;;;;;;33.97;24.52;99312.30;25174;1313;3029689;-61
2022/06/28 11:44:03;;;;;;;10.10;1.90;;;;;;;33.99;24.42;99308.08;25048;1313;3026361;-61
2022/06/28 11:46:32;;;;;;;6.60;2.00;;;;;;;34.11;24.54;99307.97;25136;1316;3027987;-59
2022/06/28 11:49:01;;;;;;;4.20;1.30;;;;;;;34.26;24.39;99307.46;25031;1313;3026375;-61
2022/06/28 11:51:31;;;;;;;4.00;1.60;;;;;;;34.44;24.16;99307.48;25096;1315;3048250;-56